createdAt,value
2023-01-17T09:34:22.906Z,1.50
2023-01-17T09:35:22.956Z,1.80
2023-01-17T09:36:22.914Z,1.54
2023-01-17T09:37:22.967Z,1.96
2023-01-17T09:38:23.100Z,2.15
2023-01-17T13:26:15.204Z,3.76
2023-01-17T13:27:15.222Z,7.11
2023-01-17T13:28:15.258Z,6.53
2023-01-17T13:29:15.108Z,5.67
2023-01-17T13:30:15.093Z,5.12
2023-01-17T13:31:15.116Z,5.06
2023-01-17T13:32:15.082Z,4.32
2023-01-17T13:33:15.203Z,3.91
2023-01-17T13:34:15.273Z,4.07
2023-01-17T13:35:15.192Z,3.61
2023-01-17T13:36:15.163Z,3.88
2023-01-17T13:37:15.226Z,3.73
2023-01-17T13:38:15.041Z,4.00
2023-01-17T13:39:15.357Z,3.54
2023-01-17T13:40:15.031Z,3.14
2023-01-17T13:41:15.142Z,3.21
2023-01-17T13:42:15.137Z,3.38
2023-01-17T13:43:15.858Z,3.37
2023-01-17T13:44:15.166Z,3.06
2023-01-17T13:45:15.158Z,3.00
2023-01-17T13:46:15.137Z,3.48
2023-01-17T13:47:15.126Z,3.06
2023-01-17T13:48:15.209Z,3.24
2023-01-17T13:49:15.116Z,3.09
2023-01-17T13:50:15.156Z,3.39
2023-01-17T13:51:15.382Z,2.67
2023-01-17T13:52:15.416Z,2.52
2023-01-17T13:53:15.490Z,2.47
2023-01-17T13:54:15.467Z,2.71
2023-01-17T13:55:15.394Z,2.41
2023-01-17T13:56:15.622Z,2.96
2023-01-17T13:57:15.618Z,2.38
2023-01-17T13:58:15.498Z,2.89
2023-01-17T13:59:15.748Z,2.32
2023-01-17T14:00:15.850Z,2.57
2023-01-17T14:01:15.929Z,2.48
2023-01-17T14:02:15.887Z,2.21
2023-01-17T14:03:16.003Z,2.08
2023-01-17T14:04:16.008Z,1.77
2023-01-17T14:05:16.062Z,1.67
2023-01-17T14:06:16.000Z,2.05
2023-01-17T14:07:16.024Z,1.73
2023-01-17T14:08:16.107Z,2.01
2023-01-17T14:09:16.263Z,2.02
2023-01-17T14:10:16.272Z,1.87
2023-01-17T14:11:16.243Z,1.48
2023-01-17T14:12:16.323Z,1.96
2023-01-17T14:13:16.270Z,1.90
2023-01-17T14:14:16.139Z,2.05
2023-01-17T14:15:16.170Z,2.27
2023-01-17T14:16:16.404Z,2.05
2023-01-17T14:17:16.437Z,2.07
2023-01-17T14:18:16.348Z,1.81
2023-01-17T14:19:16.440Z,1.81
2023-01-17T14:20:16.304Z,1.99
2023-01-17T14:21:16.505Z,1.79
2023-01-17T14:22:16.368Z,1.35
2023-01-17T14:23:16.584Z,1.80
2023-01-17T14:24:16.494Z,1.49
2023-01-17T14:25:16.706Z,1.69
2023-01-17T14:26:16.432Z,1.70
2023-01-17T14:27:16.557Z,1.73
2023-01-17T14:28:16.612Z,1.88
2023-01-17T14:30:26.320Z,1.78
2023-01-17T14:31:26.629Z,1.64
2023-01-17T14:32:26.834Z,1.85
2023-01-17T14:33:28.135Z,1.63
2023-01-17T14:34:27.627Z,1.63
2023-01-17T14:35:29.520Z,1.70
2023-01-17T14:36:29.522Z,1.85
2023-01-17T14:37:26.152Z,1.69
2023-01-17T14:38:27.300Z,1.77
2023-01-17T14:39:26.819Z,1.52
2023-01-17T14:40:26.584Z,1.81
2023-01-17T14:41:27.015Z,1.62
2023-01-17T14:42:27.307Z,1.42
2023-01-17T14:43:34.704Z,1.76
2023-01-17T14:44:26.922Z,1.42
2023-01-17T16:16:39.569Z,1.50
2023-01-17T16:16:49.503Z,2.41
2023-01-17T16:16:59.707Z,2.93
2023-01-17T16:17:09.710Z,3.28
2023-01-17T16:17:19.630Z,3.26
2023-01-17T16:17:29.647Z,3.24
2023-01-17T16:17:39.617Z,3.06
2023-01-17T16:17:50.067Z,3.36
2023-01-17T16:18:22.323Z,0.00
2023-01-17T16:18:52.800Z,2.68
2023-01-17T16:19:02.773Z,5.59
2023-01-17T16:19:12.994Z,4.52
2023-01-17T16:19:23.017Z,3.90
